RJNW

Noto Airport

Airport
ICAO code
RJNW
IATA Code
NTQ
Summary
ICAO Region
APAC
ICAO Territory
Location

Wajima, Ishikawa Prefecture

Serving
Noto Peninsula
Elevation
718 ft
Coordinates
37° 17' 43" N , 136° 57' 26" E
KCC
Metar
Observation
RJNW 300000Z 22005KT 0300 R25/0500V0900N SHSN VV002 M01/M01 Q1009
Station
NOTO
Date/Time
2023-01-30 00:00:00
Wind direction
220°
Wind speed
05 kts
Lowest cloud amount
n/a
Temperature
25°C
Dew point
5°C
Humidity
27%
QNH
1009 hPa
Weather condition
n/a

Noto Airport, also unofficially known as Wajima Airport, is a domestic airport located 6.4nm south southeast of the city of Wajima on the Noto Peninsula of Ishikawa Prefecture, Japan.

Climatology

Humid Sub-tropical climate (Köppen climate classification Cfa)

Runways

Designator Length Width Surface Rops
7/25 2000 45 ASP No/No

Airport map

Aerial View

SKYbrary Partners:

Safety knowledge contributed by: